createdAt,value
2016-07-26T00:00:59.274Z,73.09
2016-07-26T00:02:14.231Z,73.09
2016-07-26T00:02:59.334Z,73.28
2016-07-26T00:03:59.372Z,73.19
2016-07-26T00:04:59.395Z,73.48
2016-07-26T00:06:00.119Z,73.77
2016-07-26T00:06:59.454Z,73.58
2016-07-26T00:07:59.483Z,74.06
2016-07-26T00:08:59.507Z,74.06
2016-07-26T00:09:59.539Z,74.54
2016-07-26T00:10:59.565Z,74.83
2016-07-26T00:11:59.593Z,74.54
2016-07-26T00:12:59.636Z,74.54
2016-07-26T00:13:59.649Z,74.54
2016-07-26T00:15:59.712Z,75.18
2016-07-26T00:16:59.743Z,75.31
2016-07-26T00:18:14.694Z,75.7
2016-07-26T00:18:59.797Z,76.43
2016-07-26T00:20:59.855Z,76.92
2016-07-26T00:21:59.886Z,77.21
2016-07-26T00:22:59.910Z,77.26
2016-07-26T00:23:59.940Z,76.98
2016-07-26T00:24:59.970Z,77.26
2016-07-26T00:26:00.000Z,77.36
2016-07-26T00:27:00.078Z,77.17
2016-07-26T00:28:00.059Z,77.94
2016-07-26T00:29:00.088Z,77.26
2016-07-26T00:30:00.114Z,77.55
2016-07-26T00:31:00.146Z,77.17
2016-07-26T00:32:00.177Z,77.36
2016-07-26T00:33:00.200Z,77.4
2016-07-26T00:34:15.158Z,77.46
2016-07-26T00:35:00.262Z,77.84
2016-07-26T00:36:00.294Z,77.65
2016-07-26T00:37:00.322Z,77.55
2016-07-26T00:38:00.346Z,78.23
2016-07-26T00:39:00.372Z,78.33
2016-07-26T00:40:00.405Z,78.52
2016-07-26T00:41:00.434Z,77.94
2016-07-26T00:42:00.460Z,78.13
2016-07-26T00:43:00.494Z,78.52
2016-07-26T00:44:00.520Z,78.33
2016-07-26T00:45:00.552Z,79.1
2016-07-26T00:46:00.577Z,78.61
2016-07-26T00:47:00.606Z,79.49
2016-07-26T00:48:00.635Z,79.16
2016-07-26T00:49:00.663Z,79.44
2016-07-26T00:50:15.617Z,78.48
2016-07-26T00:51:00.731Z,79.16
2016-07-26T00:52:00.748Z,79.83
2016-07-26T00:53:00.777Z,80.22
2016-07-26T00:54:00.805Z,80.51
2016-07-26T00:55:00.833Z,80.12
2016-07-26T00:57:00.892Z,80.22
2016-07-26T00:58:00.921Z,80.02
2016-07-26T00:59:00.955Z,79.83
2016-07-26T01:00:00.983Z,79.74
2016-07-26T01:01:01.015Z,80.02
2016-07-26T01:02:01.037Z,80.41
2016-07-26T01:03:01.064Z,80.6
2016-07-26T01:05:16.049Z,79.74
2016-07-26T01:06:01.152Z,80.79
2016-07-26T01:07:01.183Z,80.12
2016-07-26T01:08:01.214Z,80.51
2016-07-26T01:09:01.236Z,79.83
2016-07-26T01:10:01.267Z,81.09
2016-07-26T01:11:01.291Z,80.51
2016-07-26T01:12:01.324Z,80.79
2016-07-26T01:13:01.353Z,80.12
2016-07-26T01:14:01.382Z,80.99
2016-07-26T01:15:01.408Z,80.79
2016-07-26T01:16:01.436Z,81.04
2016-07-26T01:17:01.466Z,80.85
2016-07-26T01:18:01.495Z,81.33
2016-07-26T01:19:01.522Z,81.43
2016-07-26T01:20:01.551Z,81.33
2016-07-26T01:21:01.579Z,81.24
2016-07-26T01:22:01.605Z,82.01
2016-07-26T01:23:01.636Z,82.01
2016-07-26T01:24:01.665Z,82.1
2016-07-26T01:25:01.698Z,82.1
2016-07-26T01:26:01.769Z,81.91
2016-07-26T01:27:01.756Z,82.01
2016-07-26T01:28:01.783Z,81.81
2016-07-26T01:29:01.858Z,81.81
2016-07-26T01:30:01.837Z,81.91
2016-07-26T01:31:01.870Z,82.01
2016-07-26T01:32:01.894Z,81.91
2016-07-26T01:33:01.921Z,81.43
2016-07-26T01:35:01.982Z,82.29
2016-07-26T01:36:02.007Z,81.91
2016-07-26T01:37:16.963Z,81.43
2016-07-26T01:38:02.074Z,82.2
2016-07-26T01:39:02.110Z,82.2
2016-07-26T01:40:02.125Z,82.59
2016-07-26T01:41:02.153Z,82.68
2016-07-26T01:42:02.182Z,82.49
2016-07-26T01:43:02.211Z,82.29
2016-07-26T01:44:02.235Z,82.2
2016-07-26T01:45:02.264Z,83.07
2016-07-26T01:46:02.293Z,82.68
2016-07-26T01:47:02.322Z,83.55
2016-07-26T01:48:02.349Z,83.26
2016-07-26T01:49:02.379Z,83.55
2016-07-26T01:50:02.423Z,83.45
2016-07-26T01:51:02.432Z,83.64
2016-07-26T01:52:02.468Z,82.87
2016-07-26T01:53:17.417Z,82.97
2016-07-26T01:54:02.522Z,82.49
2016-07-26T01:55:02.547Z,82.97
2016-07-26T01:56:02.577Z,83.36
2016-07-26T01:57:02.611Z,83.94
2016-07-26T01:58:02.632Z,83.84
2016-07-26T01:59:02.665Z,83.84
2016-07-26T02:00:02.690Z,83.74
2016-07-26T02:01:02.728Z,83.94
2016-07-26T02:02:02.745Z,84.32
2016-07-26T02:03:02.780Z,84.03
2016-07-26T02:04:02.808Z,84.32
2016-07-26T02:05:02.838Z,84.42
2016-07-26T02:06:02.864Z,84.56
2016-07-26T02:07:02.906Z,84.52
2016-07-26T02:08:02.919Z,84.47
2016-07-26T02:09:17.873Z,84.7
2016-07-26T02:10:02.977Z,84.76
2016-07-26T02:11:03.007Z,85.05
2016-07-26T02:12:03.036Z,85.53
2016-07-26T02:13:03.060Z,85.72
2016-07-26T02:14:03.088Z,85.53
2016-07-26T02:15:03.120Z,85.14
2016-07-26T02:16:03.150Z,85.14
2016-07-26T02:17:03.172Z,85.05
2016-07-26T02:18:03.202Z,84.9
2016-07-26T02:20:03.259Z,85.09
2016-07-26T02:21:03.287Z,85.19
2016-07-26T02:23:03.343Z,84.66
2016-07-26T02:24:03.374Z,85.09
2016-07-26T02:25:18.324Z,84.8
2016-07-26T02:28:03.483Z,84.42
2016-07-26T02:29:03.512Z,84.8
2016-07-26T02:30:03.546Z,85.14
2016-07-26T02:31:03.622Z,85.24
2016-07-26T02:32:03.596Z,84.86
2016-07-26T02:33:03.629Z,84.99
2016-07-26T02:35:03.684Z,85.09
2016-07-26T02:36:04.410Z,84.42
2016-07-26T02:37:03.735Z,84.22
2016-07-26T02:39:03.847Z,84.52
2016-07-26T02:40:18.748Z,84.61
2016-07-26T02:42:03.883Z,84.7
2016-07-26T02:43:03.909Z,84.22
2016-07-26T02:44:03.936Z,84.12
2016-07-26T02:45:03.968Z,84.52
2016-07-26T02:46:03.996Z,84.22
2016-07-26T02:47:04.076Z,84.12
2016-07-26T02:48:04.055Z,83.94
2016-07-26T02:50:04.107Z,84.61
2016-07-26T02:51:04.136Z,85.28
2016-07-26T02:52:04.161Z,85.19
2016-07-26T02:53:04.191Z,84.76
2016-07-26T02:54:04.215Z,85.14
2016-07-26T02:55:04.249Z,85.24
2016-07-26T02:56:04.276Z,84.7
2016-07-26T02:57:04.307Z,84.8
2016-07-26T02:58:04.331Z,84.8
2016-07-26T02:59:04.362Z,85.24
2016-07-26T03:00:04.388Z,84.52
2016-07-26T03:01:04.418Z,84.99
2016-07-26T03:02:04.445Z,84.9
2016-07-26T03:03:04.477Z,84.61
2016-07-26T03:04:04.505Z,85.19
2016-07-26T03:05:04.532Z,85.28
2016-07-26T03:06:04.556Z,84.7
2016-07-26T03:07:04.588Z,84.32
2016-07-26T03:08:04.616Z,84.32
2016-07-26T03:09:04.642Z,85.09
2016-07-26T03:10:04.674Z,85.38
2016-07-26T03:11:04.702Z,85.05
2016-07-26T03:12:19.650Z,85.14
2016-07-26T03:14:04.782Z,85.53
2016-07-26T03:15:04.810Z,85.38
2016-07-26T03:16:04.840Z,85.47
2016-07-26T03:17:04.869Z,85.72
2016-07-26T03:18:04.895Z,85.19
2016-07-26T03:19:04.921Z,85.67
2016-07-26T03:20:04.948Z,84.99
2016-07-26T03:21:04.978Z,85.67
2016-07-26T03:22:05.008Z,85.19
2016-07-26T03:23:05.037Z,84.99
2016-07-26T03:26:05.118Z,84.8
2016-07-26T03:27:05.149Z,84.7
2016-07-26T03:28:20.099Z,84.12
2016-07-26T03:29:05.204Z,84.7
2016-07-26T03:30:05.232Z,84.32
2016-07-26T03:31:05.260Z,84.32
2016-07-26T03:32:05.292Z,84.03
2016-07-26T03:33:05.317Z,83.94
2016-07-26T03:34:05.345Z,83.45
2016-07-26T03:35:05.373Z,83.4
2016-07-26T03:36:05.818Z,83.26
2016-07-26T03:37:05.430Z,83.01
2016-07-26T03:38:05.460Z,82.82
2016-07-26T03:39:05.485Z,82.92
2016-07-26T03:40:05.513Z,82.53
2016-07-26T03:41:05.540Z,82.34
2016-07-26T03:42:05.571Z,82.24
2016-07-26T03:43:05.600Z,82.43
2016-07-26T03:44:20.551Z,82.43
2016-07-26T03:45:05.658Z,82.57
2016-07-26T03:46:05.686Z,82.24
2016-07-26T03:47:05.708Z,82.48
2016-07-26T03:48:05.738Z,82.67
2016-07-26T03:49:05.766Z,82.43
2016-07-26T03:50:05.792Z,82.48
2016-07-26T03:51:05.825Z,82.34
2016-07-26T03:52:05.848Z,82.34
2016-07-26T03:53:05.880Z,82.43
2016-07-26T03:54:05.961Z,82.53
2016-07-26T03:55:05.934Z,82.53
2016-07-26T03:57:05.991Z,82.92
2016-07-26T03:58:06.021Z,83.2
2016-07-26T03:59:06.049Z,83.3
2016-07-26T04:00:20.999Z,83.01
2016-07-26T04:01:06.106Z,83.2
2016-07-26T04:02:06.133Z,83.5
2016-07-26T04:03:06.160Z,83.5
2016-07-26T04:04:06.190Z,83.11
2016-07-26T04:05:06.220Z,83.78
2016-07-26T04:06:06.242Z,83.78
2016-07-26T04:07:06.275Z,83.5
2016-07-26T04:08:06.302Z,83.4
2016-07-26T04:09:06.328Z,83.78
2016-07-26T04:10:06.356Z,83.5
2016-07-26T04:11:06.387Z,83.11
2016-07-26T04:12:06.413Z,83.2
2016-07-26T04:14:06.472Z,83.5
2016-07-26T04:15:21.422Z,83.4
2016-07-26T04:16:06.530Z,83.2
2016-07-26T04:17:06.568Z,83.98
2016-07-26T04:18:06.585Z,83.59
2016-07-26T04:19:06.613Z,84.07
2016-07-26T04:20:06.638Z,84.07
2016-07-26T04:21:06.664Z,83.4
2016-07-26T04:22:06.698Z,83.88
2016-07-26T04:23:06.720Z,83.98
2016-07-26T04:24:06.752Z,83.2
2016-07-26T04:25:06.781Z,83.59
2016-07-26T04:26:06.810Z,84.07
2016-07-26T04:27:06.834Z,83.78
2016-07-26T04:28:06.864Z,83.78
2016-07-26T04:29:06.892Z,83.98
2016-07-26T04:30:06.920Z,84.17
2016-07-26T04:31:06.951Z,84.75
2016-07-26T04:32:06.978Z,84.27
2016-07-26T04:33:07.002Z,84.27
2016-07-26T04:34:07.037Z,84.36
2016-07-26T04:35:07.061Z,83.69
2016-07-26T04:36:07.089Z,83.88
2016-07-26T04:37:07.119Z,83.59
2016-07-26T04:38:07.150Z,83.59
2016-07-26T04:39:07.173Z,84.21
2016-07-26T04:40:07.202Z,84.17
2016-07-26T04:41:07.230Z,84.36
2016-07-26T04:42:07.255Z,84.55
2016-07-26T04:43:07.288Z,84.75
2016-07-26T04:44:07.317Z,84.65
2016-07-26T04:45:07.344Z,84.55
2016-07-26T04:46:07.375Z,84.46
2016-07-26T04:47:22.324Z,84.07
2016-07-26T04:48:07.430Z,84.27
2016-07-26T04:49:07.458Z,84.11
2016-07-26T04:50:07.483Z,84.17
2016-07-26T04:51:07.513Z,84.01
2016-07-26T04:52:07.539Z,83.59
2016-07-26T04:53:07.567Z,83.25
2016-07-26T04:54:07.600Z,82.28
2016-07-26T04:55:07.674Z,82.18
2016-07-26T04:56:07.653Z,81.74
2016-07-26T04:57:07.679Z,81.07
2016-07-26T04:58:07.708Z,80.14
2016-07-26T04:59:07.744Z,78.99
2016-07-26T05:00:07.773Z,79.12
2016-07-26T05:02:07.821Z,76.64
2016-07-26T05:03:22.781Z,75.48
2016-07-26T05:04:07.886Z,74.69
2016-07-26T05:06:07.941Z,71.18
2016-07-26T05:07:07.969Z,70.4
2016-07-26T05:08:08.014Z,69.57
2016-07-26T05:09:08.027Z,68.05
2016-07-26T05:10:08.060Z,67.57
2016-07-26T05:11:08.094Z,66.99
2016-07-26T05:12:08.119Z,65.75
2016-07-26T05:13:08.168Z,64.33
2016-07-26T05:14:08.180Z,63.59
2016-07-26T05:15:08.215Z,63.23
2016-07-26T05:16:08.245Z,63.23
2016-07-26T05:17:08.276Z,62.35
2016-07-26T05:18:08.307Z,62.55
2016-07-26T05:20:08.365Z,60.93
2016-07-26T05:21:08.397Z,61.9
2016-07-26T05:22:08.433Z,61.32
2016-07-26T05:23:08.460Z,60.74
2016-07-26T05:24:08.496Z,61.12
2016-07-26T05:25:08.522Z,60.15
2016-07-26T05:26:08.556Z,59.5
2016-07-26T05:27:08.588Z,60.96
2016-07-26T05:28:08.629Z,61.02
2016-07-26T05:29:08.655Z,60.64
2016-07-26T05:30:08.689Z,58.89
2016-07-26T05:31:08.717Z,58.46
2016-07-26T05:32:08.752Z,58.07
2016-07-26T05:33:08.791Z,57.49
2016-07-26T05:34:08.819Z,57.03
2016-07-26T05:35:23.772Z,56.86
2016-07-26T05:37:08.915Z,57.97
2016-07-26T05:38:08.948Z,56.54
2016-07-26T05:39:08.978Z,54.46
2016-07-26T05:40:09.014Z,53.41
2016-07-26T05:41:09.043Z,53.44
2016-07-26T05:42:09.071Z,52.17
2016-07-26T05:43:09.107Z,50.82
2016-07-26T05:44:09.146Z,50.56
2016-07-26T05:45:09.176Z,50.88
2016-07-26T05:46:09.205Z,50.75
2016-07-26T05:47:09.241Z,50.78
2016-07-26T05:48:09.275Z,51.63
2016-07-26T05:49:09.309Z,51.04
2016-07-26T05:50:24.266Z,52.02
2016-07-26T05:52:09.411Z,50.65
2016-07-26T05:53:09.440Z,49.61
2016-07-26T05:54:09.479Z,48.85
2016-07-26T05:55:09.512Z,48.09
2016-07-26T05:56:09.589Z,48.09
2016-07-26T05:57:09.576Z,47.5
2016-07-26T05:58:09.608Z,48.28
2016-07-26T05:59:09.640Z,47.04
2016-07-26T06:00:09.676Z,46.4
2016-07-26T06:01:09.707Z,46.86
2016-07-26T06:03:09.785Z,46.47
2016-07-26T06:04:09.818Z,46.67
2016-07-26T06:05:09.854Z,46.75
2016-07-26T06:06:09.883Z,47.02
2016-07-26T06:07:09.919Z,46.72
2016-07-26T06:08:09.953Z,47.26
2016-07-26T06:09:10.004Z,49.53
2016-07-26T06:10:10.021Z,50.36
2016-07-26T06:11:10.049Z,51.31
2016-07-26T06:12:10.089Z,51.09
2016-07-26T06:13:10.121Z,49.17
2016-07-26T06:14:10.152Z,47.66
2016-07-26T06:15:10.184Z,47.82
2016-07-26T06:16:10.222Z,50.2
2016-07-26T06:17:10.259Z,51.48
2016-07-26T06:18:10.291Z,51.48
2016-07-26T06:19:10.327Z,50.51
2016-07-26T06:20:10.355Z,49.58
2016-07-26T06:21:10.393Z,48.54
2016-07-26T06:22:25.356Z,47.58
2016-07-26T06:23:10.457Z,47.31
2016-07-26T06:24:10.492Z,46.18
2016-07-26T06:25:10.526Z,47.6
2016-07-26T06:26:10.560Z,48.48
2016-07-26T06:27:10.599Z,50.56
2016-07-26T06:28:10.632Z,53.14
2016-07-26T06:29:10.659Z,53.94
2016-07-26T06:30:10.696Z,54.62
2016-07-26T06:32:10.764Z,55.18
2016-07-26T06:33:10.811Z,52.87
2016-07-26T06:34:10.827Z,51.26
2016-07-26T06:35:10.865Z,49.27
2016-07-26T06:37:10.931Z,50.07
2016-07-26T06:38:25.889Z,51.24
2016-07-26T06:39:11.003Z,50.99
2016-07-26T06:40:11.032Z,52.26
2016-07-26T06:41:11.063Z,53.97
2016-07-26T06:42:11.101Z,54.13
2016-07-26T06:43:11.134Z,55.01
2016-07-26T06:44:11.167Z,55.08
2016-07-26T06:45:11.198Z,55.93
2016-07-26T06:46:11.248Z,55.93
2016-07-26T06:48:11.298Z,52.24
2016-07-26T06:49:11.335Z,50.7
2016-07-26T06:50:11.366Z,49.39
2016-07-26T06:51:11.400Z,47.87
2016-07-26T06:52:11.439Z,48.14
2016-07-26T06:53:11.472Z,47.19
2016-07-26T06:54:26.472Z,47.28
2016-07-26T06:55:11.535Z,48.34
2016-07-26T06:56:11.569Z,48.71
2016-07-26T06:57:11.601Z,48.9
2016-07-26T06:58:11.639Z,49.56
2016-07-26T06:59:11.667Z,49.37
2016-07-26T07:00:11.698Z,49.37
2016-07-26T07:01:11.731Z,48.9
2016-07-26T07:02:11.765Z,49.39
2016-07-26T07:03:11.801Z,49.46
2016-07-26T07:04:11.832Z,49.56
2016-07-26T07:05:11.868Z,50.51
2016-07-26T07:07:11.938Z,50.38
2016-07-26T07:08:11.965Z,51.39
2016-07-26T07:09:11.999Z,50.87
2016-07-26T07:10:26.962Z,50.87
2016-07-26T07:11:12.065Z,51.36
2016-07-26T07:12:12.100Z,51.36
2016-07-26T07:13:12.130Z,50.78
2016-07-26T07:14:12.162Z,50.8
2016-07-26T07:15:12.202Z,50.6
2016-07-26T07:16:12.227Z,50.7
2016-07-26T07:17:12.264Z,50.6
2016-07-26T07:18:12.297Z,50.51
2016-07-26T07:19:12.332Z,51.56
2016-07-26T07:20:12.359Z,51.43
2016-07-26T07:21:12.400Z,51.65
2016-07-26T07:22:12.432Z,52.89
2016-07-26T07:23:12.462Z,52.19
2016-07-26T07:24:12.495Z,52.34
2016-07-26T07:25:27.452Z,49.99
2016-07-26T07:26:12.563Z,49.05
2016-07-26T07:27:12.595Z,49.07
2016-07-26T07:28:12.629Z,47.92
2016-07-26T07:29:12.660Z,47.56
2016-07-26T07:30:12.693Z,46.11
2016-07-26T07:31:12.729Z,46.14
2016-07-26T07:32:12.759Z,47.02
2016-07-26T07:33:12.790Z,46.21
2016-07-26T07:34:12.822Z,45.55
2016-07-26T07:35:12.859Z,45.26
2016-07-26T07:38:12.957Z,44.3
2016-07-26T07:39:12.994Z,44.79
2016-07-26T07:40:13.027Z,43.54
2016-07-26T07:41:13.058Z,43.07
2016-07-26T07:42:13.093Z,43.73
2016-07-26T07:43:13.128Z,43.54
2016-07-26T07:44:13.161Z,43.73
2016-07-26T07:45:13.195Z,44.01
2016-07-26T07:46:13.225Z,44.2
2016-07-26T07:47:13.255Z,44.49
2016-07-26T07:48:13.295Z,44.96
2016-07-26T07:49:13.327Z,45.62
2016-07-26T07:50:13.359Z,45.9
2016-07-26T07:51:13.394Z,46.88
2016-07-26T07:52:13.430Z,46.97
2016-07-26T07:53:13.459Z,47.05
2016-07-26T07:54:13.491Z,46.48
2016-07-26T07:55:13.529Z,46.89
2016-07-26T07:56:13.557Z,45.92
2016-07-26T07:57:28.516Z,46.21
2016-07-26T07:58:13.629Z,46.78
2016-07-26T07:59:13.655Z,46.09
2016-07-26T08:00:13.695Z,46.21
2016-07-26T08:01:13.726Z,46.21
2016-07-26T08:02:13.757Z,46.48
2016-07-26T08:03:13.790Z,46.01
2016-07-26T08:04:13.829Z,45.62
2016-07-26T08:05:13.909Z,46.23
2016-07-26T08:06:13.890Z,45.84
2016-07-26T08:07:13.928Z,44.96
2016-07-26T08:08:13.958Z,45.55
2016-07-26T08:10:14.723Z,47.07
2016-07-26T08:11:14.061Z,46.58
2016-07-26T08:12:14.086Z,46.66
2016-07-26T08:13:29.047Z,46.58
2016-07-26T08:14:14.157Z,46.09
2016-07-26T08:15:14.189Z,45.62
2016-07-26T08:16:14.226Z,45.43
2016-07-26T08:17:14.258Z,44.48
2016-07-26T08:18:14.286Z,44.59
2016-07-26T08:19:14.323Z,45.65
2016-07-26T08:20:14.354Z,46.01
2016-07-26T08:21:14.386Z,47.14
2016-07-26T08:22:14.422Z,47.71
2016-07-26T08:23:14.448Z,47.71
2016-07-26T08:24:14.486Z,48
2016-07-26T08:25:14.515Z,47.51
2016-07-26T08:26:14.553Z,47.14
2016-07-26T08:27:14.583Z,46.66
2016-07-26T08:28:14.622Z,46.58
2016-07-26T08:29:29.573Z,47.34
2016-07-26T08:30:14.687Z,46.39
2016-07-26T08:31:14.713Z,45.51
2016-07-26T08:32:14.752Z,45.26
2016-07-26T08:33:14.784Z,45.75
2016-07-26T08:34:14.819Z,45.23
2016-07-26T08:35:14.849Z,45.84
2016-07-26T08:36:14.886Z,44.57
2016-07-26T08:37:14.913Z,44.49
2016-07-26T08:39:14.983Z,45.84
2016-07-26T08:40:15.017Z,47.27
2016-07-26T08:41:15.057Z,46.48
2016-07-26T08:42:15.077Z,47.36
2016-07-26T08:43:15.116Z,47.56
2016-07-26T08:44:15.149Z,46.88
2016-07-26T08:45:30.101Z,47.17
2016-07-26T08:46:15.215Z,47.77
2016-07-26T08:47:15.246Z,48.24
2016-07-26T08:48:15.276Z,48.22
2016-07-26T08:49:15.314Z,47.66
2016-07-26T08:50:15.349Z,47.19
2016-07-26T08:51:15.382Z,47.48
2016-07-26T08:52:15.413Z,47.38
2016-07-26T08:53:15.448Z,48.07
2016-07-26T08:54:15.477Z,48.34
2016-07-26T08:56:15.595Z,49.1
2016-07-26T08:57:15.581Z,49.07
2016-07-26T08:58:15.614Z,49.88
2016-07-26T08:59:15.649Z,50.21
2016-07-26T09:00:30.599Z,50.02
2016-07-26T09:01:15.723Z,49.44
2016-07-26T09:02:15.747Z,49.76
2016-07-26T09:03:15.790Z,49.93
2016-07-26T09:04:15.816Z,49.66
2016-07-26T09:05:15.841Z,49.46
2016-07-26T09:06:15.880Z,48.49
2016-07-26T09:07:15.911Z,47.63
2016-07-26T09:08:15.944Z,47.58
2016-07-26T09:09:15.977Z,47.66
2016-07-26T09:10:16.010Z,47.46
2016-07-26T09:11:16.042Z,46.99
2016-07-26T09:12:16.076Z,47.28
2016-07-26T09:14:16.136Z,46.6
2016-07-26T09:15:16.168Z,46.89
2016-07-26T09:16:16.208Z,46.5
2016-07-26T09:17:16.238Z,45.94
2016-07-26T09:18:16.273Z,47.58
2016-07-26T09:19:16.308Z,48.41
2016-07-26T09:20:16.340Z,48.29
2016-07-26T09:21:16.371Z,47.73
2016-07-26T09:22:16.401Z,47.92
2016-07-26T09:23:16.441Z,48.22
2016-07-26T09:24:16.470Z,47.73
2016-07-26T09:25:16.502Z,47.46
2016-07-26T09:26:16.534Z,47.56
2016-07-26T09:27:16.567Z,47.75
2016-07-26T09:29:16.630Z,46.78
2016-07-26T09:30:16.668Z,47.75
2016-07-26T09:31:16.700Z,47.75
2016-07-26T09:32:31.652Z,47.85
2016-07-26T09:33:16.762Z,47.56
2016-07-26T09:34:16.797Z,47.27
2016-07-26T09:35:16.828Z,47.56
2016-07-26T09:36:16.864Z,48.22
2016-07-26T09:37:16.898Z,48.41
2016-07-26T09:38:16.931Z,49.07
2016-07-26T09:39:16.960Z,49.46
2016-07-26T09:40:16.993Z,50.31
2016-07-26T09:41:17.023Z,49.15
2016-07-26T09:42:17.058Z,49.54
2016-07-26T09:43:17.091Z,50.7
2016-07-26T09:45:17.160Z,51.34
2016-07-26T09:46:17.193Z,51.63
2016-07-26T09:47:17.220Z,52.22
2016-07-26T09:48:32.178Z,52.28
2016-07-26T09:49:17.286Z,52.22
2016-07-26T09:50:17.318Z,52.87
2016-07-26T09:52:17.387Z,53.36
2016-07-26T09:53:17.417Z,53.85
2016-07-26T09:54:17.445Z,53.23
2016-07-26T09:56:17.511Z,53.45
2016-07-26T09:57:17.548Z,53.16
2016-07-26T09:58:17.579Z,53.45
2016-07-26T09:59:17.608Z,53.26
2016-07-26T10:00:17.644Z,53.19
2016-07-26T10:01:17.675Z,53.36
2016-07-26T10:02:17.705Z,53.19
2016-07-26T10:03:17.740Z,54.46
2016-07-26T10:04:32.692Z,54.01
2016-07-26T10:05:17.807Z,53.94
2016-07-26T10:06:17.837Z,53.75
2016-07-26T10:07:17.868Z,53.58
2016-07-26T10:08:17.898Z,53.48
2016-07-26T10:09:17.985Z,53.48
2016-07-26T10:10:17.969Z,52.99
2016-07-26T10:11:17.998Z,52.31
2016-07-26T10:12:18.030Z,51.36
2016-07-26T10:13:18.056Z,50.9
2016-07-26T10:14:18.096Z,50.73
2016-07-26T10:15:18.126Z,49.78
2016-07-26T10:16:18.160Z,50.85
2016-07-26T10:17:18.190Z,50.73
2016-07-26T10:18:18.227Z,50.53
2016-07-26T10:20:33.209Z,51.09
2016-07-26T10:21:18.317Z,50.63
2016-07-26T10:22:18.356Z,50.82
2016-07-26T10:23:18.382Z,50.41
2016-07-26T10:24:18.429Z,50.14
2016-07-26T10:25:18.449Z,49.56
2016-07-26T10:26:18.480Z,49.58
2016-07-26T10:27:18.509Z,49.66
2016-07-26T10:31:18.642Z,48.97
2016-07-26T10:32:18.677Z,48.22
2016-07-26T10:33:18.708Z,46.7
2016-07-26T10:35:33.691Z,46.43
2016-07-26T10:36:18.804Z,46.04
2016-07-26T10:37:18.838Z,46.62
2016-07-26T10:38:18.873Z,46.62
2016-07-26T10:39:18.908Z,46.62
2016-07-26T10:40:18.946Z,46.62
2016-07-26T10:41:18.967Z,47.58
2016-07-26T10:42:18.996Z,47.56
2016-07-26T10:44:19.060Z,46.7
2016-07-26T10:45:19.100Z,47.19
2016-07-26T10:46:19.127Z,47.28
2016-07-26T10:48:19.196Z,47.28
2016-07-26T10:50:19.261Z,46.6
2016-07-26T10:51:19.289Z,46.62
2016-07-26T10:52:19.328Z,45.84
2016-07-26T10:53:19.357Z,46.04
2016-07-26T10:54:19.393Z,46.04
2016-07-26T10:55:19.420Z,45.75
2016-07-26T10:56:19.454Z,45.75
2016-07-26T10:57:19.487Z,45.75
2016-07-26T10:58:19.521Z,46.04
2016-07-26T10:59:19.554Z,46.01
2016-07-26T11:00:19.583Z,46.5
2016-07-26T11:02:19.655Z,47.53
2016-07-26T11:03:19.687Z,47.02
2016-07-26T11:05:19.752Z,46.97
2016-07-26T11:06:19.782Z,47.27
2016-07-26T11:07:34.733Z,48.19
2016-07-26T11:08:19.845Z,48.27
2016-07-26T11:09:19.878Z,48.27
2016-07-26T11:10:19.910Z,48.36
2016-07-26T11:11:19.993Z,47.31
2016-07-26T11:12:19.976Z,46.85
2016-07-26T11:13:20.014Z,46.26
2016-07-26T11:14:20.036Z,45.97
2016-07-26T11:15:20.072Z,46.26
2016-07-26T11:17:20.137Z,46.83
2016-07-26T11:18:20.173Z,46.56
2016-07-26T11:21:20.260Z,46.9
2016-07-26T11:23:35.252Z,46.22
2016-07-26T11:24:20.358Z,45.56
2016-07-26T11:25:20.393Z,45.95
2016-07-26T11:26:20.424Z,45.95
2016-07-26T11:27:20.461Z,46.44
2016-07-26T11:28:20.491Z,47.39
2016-07-26T11:29:20.518Z,47.46
2016-07-26T11:30:20.559Z,46.9
2016-07-26T11:31:20.636Z,47.09
2016-07-26T11:33:20.662Z,47.66
2016-07-26T11:35:20.723Z,45.92
2016-07-26T11:37:20.786Z,45.68
2016-07-26T11:38:20.817Z,45.78
2016-07-26T11:39:35.768Z,46.17
2016-07-26T11:40:20.881Z,45.97
2016-07-26T11:41:20.909Z,44.68
2016-07-26T11:42:20.945Z,44.6
2016-07-26T11:43:20.983Z,44.12
2016-07-26T11:44:21.005Z,43.08
2016-07-26T11:45:21.042Z,42.99
2016-07-26T11:46:21.073Z,43.16
2016-07-26T11:47:21.108Z,42.58
2016-07-26T11:50:21.199Z,42.11
2016-07-26T11:52:21.268Z,42.01
2016-07-26T11:53:21.295Z,41.33
2016-07-26T11:54:21.334Z,41.82
2016-07-26T11:55:36.286Z,41.82
2016-07-26T11:56:21.397Z,40.94
2016-07-26T11:57:21.425Z,40.74
2016-07-26T11:58:21.459Z,40.76
2016-07-26T11:59:21.493Z,40.86
2016-07-26T12:00:21.522Z,41.27
2016-07-26T12:01:21.561Z,41.05
2016-07-26T12:02:21.588Z,41.82
2016-07-26T12:03:21.625Z,41.13
2016-07-26T12:05:21.687Z,40.94
2016-07-26T12:06:21.723Z,40.76
2016-07-26T12:07:21.753Z,41.33
2016-07-26T12:08:21.785Z,41.03
2016-07-26T12:09:21.817Z,41.03
2016-07-26T12:10:36.774Z,39.98
2016-07-26T12:11:21.884Z,40.29
2016-07-26T12:12:21.923Z,39.8
2016-07-26T12:13:21.945Z,39.61
2016-07-26T12:14:21.982Z,39.43
2016-07-26T12:15:22.016Z,39.22
2016-07-26T12:16:22.045Z,39.12
2016-07-26T12:17:22.085Z,40.09
2016-07-26T12:18:22.116Z,39.29
2016-07-26T12:20:22.177Z,39.8
2016-07-26T12:21:22.207Z,40.08
2016-07-26T12:22:22.243Z,40.56
2016-07-26T12:23:22.273Z,41.31
2016-07-26T12:24:22.305Z,41.31
2016-07-26T12:25:22.339Z,41.41
2016-07-26T12:26:22.366Z,40.82
2016-07-26T12:27:22.404Z,41.11
2016-07-26T12:28:22.436Z,41.6
2016-07-26T12:29:22.465Z,42.09
2016-07-26T12:30:22.498Z,41.89
2016-07-26T12:31:22.531Z,40.92
2016-07-26T12:32:22.566Z,40.06
2016-07-26T12:33:22.593Z,39.57
2016-07-26T12:35:22.660Z,38.92
2016-07-26T12:36:22.692Z,38.35
2016-07-26T12:37:22.730Z,37.57
2016-07-26T12:39:22.788Z,38.16
2016-07-26T12:40:22.826Z,38.45
2016-07-26T12:41:22.855Z,39.02
2016-07-26T12:42:37.807Z,39.59
2016-07-26T12:43:22.923Z,40.37
2016-07-26T12:44:22.955Z,40.64
2016-07-26T12:45:22.985Z,41.52
2016-07-26T12:46:23.018Z,42.09
2016-07-26T12:47:23.046Z,41.8
2016-07-26T12:48:23.082Z,42.19
2016-07-26T12:50:23.159Z,42.16
2016-07-26T12:51:23.174Z,42.36
2016-07-26T12:52:23.225Z,42.85
2016-07-26T12:53:23.239Z,42.46
2016-07-26T12:54:23.274Z,42.65
2016-07-26T12:55:23.311Z,42.36
2016-07-26T12:56:23.343Z,41.48
2016-07-26T12:57:23.375Z,41.11
2016-07-26T12:58:38.328Z,41.03
2016-07-26T12:59:23.439Z,41.41
2016-07-26T13:00:23.472Z,41.03
2016-07-26T13:01:23.503Z,41.6
2016-07-26T13:02:23.536Z,41.87
2016-07-26T13:03:23.565Z,41.87
2016-07-26T13:05:23.632Z,41.02
2016-07-26T13:06:23.661Z,40.53
2016-07-26T13:08:23.726Z,40.27
2016-07-26T13:09:23.764Z,39.69
2016-07-26T13:10:23.788Z,39.59
2016-07-26T13:11:23.826Z,39.29
2016-07-26T13:12:23.857Z,39.12
2016-07-26T13:13:23.945Z,39.49
2016-07-26T13:14:38.842Z,39.78
2016-07-26T13:15:23.954Z,39.59
2016-07-26T13:16:23.982Z,39.69
2016-07-26T13:17:24.021Z,40.45
2016-07-26T13:18:24.099Z,40.64
2016-07-26T13:20:24.116Z,41.02
2016-07-26T13:21:24.145Z,41.58
2016-07-26T13:22:24.179Z,41.02
2016-07-26T13:23:24.217Z,40.63
2016-07-26T13:24:24.242Z,40.55
2016-07-26T13:25:24.275Z,41.02
2016-07-26T13:27:24.341Z,41.11
2016-07-26T13:28:24.372Z,42.48
2016-07-26T13:29:24.405Z,41.77
2016-07-26T13:30:39.359Z,42.07
2016-07-26T13:31:24.475Z,42.94
2016-07-26T13:32:24.506Z,43.02
2016-07-26T13:33:25.241Z,43.22
2016-07-26T13:35:24.601Z,42.63
2016-07-26T13:36:24.632Z,43.29
2016-07-26T13:37:24.665Z,43.49
2016-07-26T13:38:24.696Z,43.29
2016-07-26T13:40:24.760Z,42.8
2016-07-26T13:42:24.827Z,43.19
2016-07-26T13:43:24.859Z,42.44
2016-07-26T13:44:24.896Z,42.73
2016-07-26T13:45:39.846Z,42.54
2016-07-26T13:46:24.958Z,42.83
2016-07-26T13:47:24.988Z,42.9
2016-07-26T13:48:25.017Z,41.95
2016-07-26T13:50:25.078Z,42.34
2016-07-26T13:51:25.117Z,42.22
2016-07-26T13:52:25.151Z,42.05
2016-07-26T13:53:25.178Z,42.24
2016-07-26T13:54:25.211Z,41.56
2016-07-26T13:55:25.241Z,41.38
2016-07-26T13:56:25.275Z,41.19
2016-07-26T13:57:25.310Z,41.38
2016-07-26T13:58:25.340Z,41.48
2016-07-26T13:59:25.373Z,41.38
2016-07-26T14:00:25.405Z,41.09
2016-07-26T14:01:25.434Z,40.99
2016-07-26T14:02:25.469Z,39.55
2016-07-26T14:03:25.503Z,39.76
2016-07-26T14:05:25.568Z,40.23
2016-07-26T14:06:25.598Z,39.94
2016-07-26T14:07:25.633Z,39.92
2016-07-26T14:08:25.665Z,40.23